Terminal Aerodrome Forecast
Issued by NWS Wakefield, VA

Home | Current Version | Previous Version | Text Only | Print | Product List | Glossary On
Versions: 1 2 3 4 5 6 7 8 9 10 11 12
000
FTUS41 KAKQ 242320
TAFORF
TAF
KORF 242320Z 2500/2524 14008KT P6SM SCT150
     FM250500 16004KT P6SM SCT250
     FM250900 17007KT P6SM BKN015
     FM251500 18008KT P6SM SCT060
     FM251800 19012G19KT P6SM SCT050 BKN250
     FM252100 21015G25KT 4SM SHRA BKN035=

USA.gov is the U.S. government's official web portal to all federal, state and local government web resources and services.